Wasco, California
Current Conditions -  °F | °C
As of 1:54 PM on Friday 24 Oct 2014 (Local Time) from KBFL Reporting Station
Clear Clear  
Wind Chill: 81°   Ceiling: Unl
Heat Index: 81°   Visibility: 7mi
Dew Point: 47°   Wind: 3mph
Humidity: 30%   Direction: 310°NW
Pressure: 29.91"   Gusts: NA
Location:  35.59°N, 119.33°W
Report Text: KBFL 242054Z 31003KT 7SM CLR 27/08 A2991 RMK AO2 SLP122 T02720083 58026
Loading
Personal Weather Stations






























Interactive Weather Map
Tropical Storm Tracking
New forecast layout! Learn more

10-Day Weather Forecast

Advertisements
Track Severe Weather on mobile